| time (UTC) | temp F | wind direction | speed knots | gust knots | rain 1hr in | rain 24hr in | rain mn in | humidity % | barometer mb |
| 20260906043056 | 71 | 360 | 0.0 | 0.0 | 0.00 | 0.06 | 0.06 | 46 | 1012.7 |
| 20260906041554 | 71 | 360 | 0.0 | 0.0 | 0.00 | 0.06 | 0.06 | 45 | 1012.8 |
| 20260906040133 | 71 | 360 | 0.0 | 0.0 | 0.00 | 0.06 | 0.06 | 44 | 1012.9 |
| 20260906034603 | 71 | 360 | 0.0 | 0.0 | 0.00 | 0.06 | 0.06 | 44 | 1013.0 |
| 20260906033104 | 71 | 360 | 0.0 | 0.0 | 0.00 | 0.06 | 0.06 | 43 | 1013.1 |
| 20260906031520 | 72 | 360 | 0.0 | 0.0 | 0.00 | 0.06 | 0.06 | 44 | 1013.2 |
| 20260906030019 | 72 | 360 | 0.0 | 0.0 | 0.00 | 0.06 | 0.06 | 44 | 1012.9 |
| 20260906024515 | 72 | 360 | 0.0 | 0.0 | 0.00 | 0.06 | 0.06 | 43 | 1013.1 |
| 20260906023015 | 72 | 360 | 0.0 | 0.0 | 0.00 | 0.06 | 0.06 | 44 | 1012.6 |
| 20260906021514 | 72 | 360 | 0.0 | 0.0 | 0.00 | 0.06 | 0.06 | 47 | 1012.4 |
| 20260906020014 | 73 | 360 | 0.0 | 0.0 | 0.00 | 0.06 | 0.06 | 51 | 1012.3 |
| 20260906014543 | 73 | 360 | 0.0 | 0.0 | 0.00 | 0.06 | 0.06 | 52 | 1012.2 |
| 20260906013042 | 73 | 360 | 0.0 | 0.0 | 0.00 | 0.06 | 0.06 | 53 | 1012.2 |
| 20260906011540 | 74 | 360 | 0.0 | 0.0 | 0.00 | 0.06 | 0.06 | 54 | 1012.3 |
| 20260906010040 | 74 | 360 | 0.0 | 0.0 | 0.00 | 0.06 | 0.06 | 57 | 1012.0 |
| 20260906004540 | 75 | 360 | 0.0 | 0.9 | 0.00 | 0.06 | 0.06 | 58 | 1012.0 |
| 20260906003038 | 75 | 360 | 0.0 | 0.0 | 0.00 | 0.06 | 0.06 | 61 | 1011.9 |
| 20260906001537 | 76 | 360 | 0.0 | 0.0 | 0.00 | 0.06 | 0.06 | 62 | 1011.8 |
| 20260906000034 | 77 | 360 | 0.0 | 0.0 | 0.00 | 0.06 | 0.06 | 62 | 1011.8 |
| 20260905234533 | 78 | 360 | 0.0 | 0.0 | 0.00 | 0.06 | 0.06 | 60 | 1011.6 |
| 20260905233034 | 79 | 360 | 0.0 | 0.0 | 0.00 | 0.06 | 0.06 | 59 | 1011.4 |
| 20260905231531 | 79 | 295 | 0.0 | 0.0 | 0.00 | 0.06 | 0.06 | 58 | 1011.0 |
| 20260905230030 | 79 | 295 | 0.0 | 1.7 | 0.00 | 0.06 | 0.06 | 57 | 1011.3 |
| 20260905224604 | 79 | 292 | 0.0 | 2.6 | 0.00 | 0.06 | 0.06 | 58 | 1011.2 |
| 20260905223129 | 79 | 312 | 0.9 | 2.6 | 0.00 | 0.06 | 0.06 | 57 | 1011.1 |
| 20260905221526 | 78 | 304 | 0.0 | 1.7 | 0.00 | 0.06 | 0.06 | 58 | 1011.2 |
| 20260905220025 | 78 | 294 | 0.0 | 2.6 | 0.00 | 0.06 | 0.06 | 57 | 1011.2 |
| 20260905214525 | 77 | 304 | 0.0 | 3.5 | 0.00 | 0.06 | 0.06 | 56 | 1011.4 |
| 20260905213024 | 76 | 281 | 0.0 | 0.0 | 0.00 | 0.06 | 0.06 | 55 | 1011.4 |
| 20260905211538 | 75 | 360 | 0.0 | 3.5 | 0.00 | 0.06 | 0.06 | 54 | 1011.8 |
| 20260905210036 | 74 | 360 | 0.0 | 0.0 | 0.01 | 0.06 | 0.06 | 42 | 1012.0 |
| 20260905204522 | 73 | 360 | 0.0 | 0.9 | 0.01 | 0.06 | 0.06 | 43 | 1012.2 |
| 20260905203022 | 73 | 360 | 0.0 | 0.0 | 0.01 | 0.06 | 0.06 | 45 | 1012.4 |
| 20260905201521 | 72 | 360 | 0.0 | 0.0 | 0.01 | 0.06 | 0.06 | 47 | 1012.3 |
| 20260905200022 | 72 | 360 | 0.0 | 0.9 | 0.03 | 0.05 | 0.05 | 54 | 1012.3 |
| 20260905194511 | 73 | 360 | 0.0 | 0.0 | 0.05 | 0.05 | 0.05 | 59 | 1011.8 |
| 20260905193010 | 74 | 360 | 0.9 | 4.3 | 0.05 | 0.05 | 0.05 | 63 | 1012.8 |
| 20260905191607 | 78 | 276 | 0.0 | 2.6 | 0.05 | 0.05 | 0.05 | 61 | 1011.1 |
| 20260905184559 | 94 | 80 | 2.6 | 8.7 | 0.00 | 0.00 | 0.00 | 36 | 1011.8 |
| 20260905183048 | 98 | 284 | 0.0 | 2.6 | 0.00 | 0.00 | 0.00 | 33 | 1011.3 |
| 20260905181541 | 98 | 300 | 0.0 | 0.9 | 0.00 | 0.00 | 0.00 | 33 | 1011.3 |
| 20260905180043 | 98 | 302 | 0.0 | 4.3 | 0.00 | 0.00 | 0.00 | 33 | 1011.7 |
| 20260905174536 | 98 | 291 | 0.0 | 3.5 | 0.00 | 0.00 | 0.00 | 33 | 1012.3 |
| 20260905173034 | 97 | 341 | 0.0 | 5.2 | 0.00 | 0.00 | 0.00 | 36 | 1012.5 |
| 20260905171559 | 95 | 294 | 0.0 | 4.3 | 0.00 | 0.00 | 0.00 | 38 | 1012.7 |
| 20260905170111 | 95 | 186 | 0.0 | 0.0 | 0.00 | 0.00 | 0.00 | 38 | 1012.9 |
| 20260905164604 | 95 | 292 | 0.0 | 1.7 | 0.00 | 0.00 | 0.00 | 40 | 1013.2 |
| 20260905163054 | 93 | 18 | 0.0 | 3.5 | 0.00 | 0.00 | 0.00 | 41 | 1013.3 |
| 20260905161606 | 93 | 312 | 0.0 | 3.5 | 0.00 | 0.00 | 0.00 | 44 | 1013.4 |
| 20260905160054 | 93 | 166 | 0.0 | 0.0 | 0.00 | 0.00 | 0.00 | 47 | 1013.6 |
| 20260905154602 | 92 | 280 | 0.0 | 0.0 | 0.00 | 0.00 | 0.00 | 47 | 1013.7 |
| 20260905153051 | 91 | 319 | 0.0 | 2.6 | 0.00 | 0.00 | 0.00 | 50 | 1013.6 |
| 20260905151551 | 90 | 304 | 0.0 | 0.0 | 0.00 | 0.00 | 0.00 | 50 | 1013.6 |
| 20260905150052 | 88 | 304 | 0.0 | 0.9 | 0.00 | 0.00 | 0.00 | 54 | 1013.8 |
| 20260905144550 | 87 | 292 | 0.0 | 0.9 | 0.00 | 0.00 | 0.00 | 55 | 1013.9 |
| 20260905143019 | 86 | 242 | 0.0 | 0.0 | 0.00 | 0.00 | 0.00 | 55 | 1013.8 |
| 20260905141519 | 84 | 293 | 0.0 | 0.0 | 0.00 | 0.00 | 0.00 | 57 | 1014.0 |
| 20260905140052 | 83 | 298 | 0.0 | 0.0 | 0.00 | 0.00 | 0.00 | 56 | 1013.9 |
| 20260905134552 | 81 | 302 | 0.0 | 1.7 | 0.00 | 0.00 | 0.00 | 54 | 1013.9 |
| 20260905133024 | 79 | 322 | 0.0 | 1.7 | 0.00 | 0.00 | 0.00 | 54 | 1014.1 |
| 20260905131524 | 79 | 305 | 0.0 | 0.0 | 0.00 | 0.00 | 0.00 | 51 | 1014.2 |
| 20260905130046 | 77 | 165 | 0.0 | 0.0 | 0.00 | 0.00 | 0.00 | 51 | 1014.1 |
| 20260905124545 | 76 | 360 | 0.0 | 0.0 | 0.00 | 0.00 | 0.00 | 47 | 1014.2 |
| 20260905123051 | 75 | 360 | 0.0 | 0.0 | 0.00 | 0.00 | 0.00 | 43 | 1014.3 |
| 20260905121552 | 74 | 360 | 0.0 | 0.0 | 0.00 | 0.00 | 0.00 | 45 | 1014.2 |
| 20260905120041 | 73 | 360 | 0.0 | 0.0 | 0.00 | 0.00 | 0.00 | 45 | 1014.0 |
| 20260905114549 | 73 | 360 | 0.0 | 0.0 | 0.00 | 0.00 | 0.00 | 44 | 1014.0 |
| 20260905113038 | 73 | 360 | 0.0 | 0.0 | 0.00 | 0.00 | 0.00 | 44 | 1013.8 |
| 20260905111538 | 73 | 360 | 0.0 | 0.0 | 0.00 | 0.00 | 0.00 | 44 | 1013.5 |
| 20260905110037 | 73 | 360 | 0.0 | 0.0 | 0.00 | 0.00 | 0.00 | 44 | 1013.0 |
| 20260905104540 | 73 | 360 | 0.0 | 0.0 | 0.00 | 0.00 | 0.00 | 43 | 1012.9 |
| 20260905103028 | 73 | 360 | 0.0 | 0.0 | 0.00 | 0.00 | 0.00 | 44 | 1012.8 |
| 20260905101533 | 73 | 360 | 0.0 | 0.0 | 0.00 | 0.00 | 0.00 | 47 | 1012.7 |
| 20260905100058 | 73 | 360 | 0.0 | 0.0 | 0.00 | 0.00 | 0.00 | 48 | 1012.6 |
| 20260905094532 | 73 | 360 | 0.0 | 0.0 | 0.00 | 0.00 | 0.00 | 49 | 1012.6 |
| 20260905093057 | 74 | 360 | 0.0 | 0.0 | 0.00 | 0.00 | 0.00 | 53 | 1012.7 |
| 20260905091601 | 74 | 360 | 0.0 | 0.0 | 0.00 | 0.00 | 0.00 | 53 | 1012.7 |
| 20260905090021 | 75 | 360 | 0.0 | 0.0 | 0.00 | 0.00 | 0.00 | 52 | 1012.6 |
| 20260905084518 | 75 | 360 | 0.0 | 0.0 | 0.00 | 0.00 | 0.00 | 53 | 1012.8 |
| 20260905083014 | 75 | 360 | 0.0 | 0.0 | 0.00 | 0.00 | 0.00 | 53 | 1012.9 |
| 20260905081513 | 75 | 360 | 0.0 | 0.0 | 0.00 | 0.00 | 0.00 | 54 | 1013.0 |
| 20260905080014 | 75 | 360 | 0.0 | 0.0 | 0.00 | 0.00 | 0.00 | 55 | 1013.1 |
| 20260905074520 | 75 | 360 | 0.0 | 0.0 | 0.00 | 0.00 | 0.00 | 55 | 1013.3 |
| 20260905073009 | 75 | 360 | 0.0 | 0.0 | 0.00 | 0.00 | 0.00 | 58 | 1013.4 |
| 20260905071505 | 76 | 360 | 0.0 | 0.0 | 0.00 | 0.00 | 0.00 | 59 | 1013.6 |
| 20260905070004 | 76 | 360 | 0.0 | 0.0 | 0.00 | 0.00 | 0.00 | 59 | 1013.6 |
| 20260905064503 | 76 | 360 | 0.0 | 0.0 | 0.00 | 0.00 | 0.00 | 60 | 1013.8 |
| 20260905063059 | 77 | 360 | 0.0 | 0.0 | 0.00 | 0.00 | 0.00 | 60 | 1014.0 |
| 20260905061606 | 77 | 360 | 0.0 | 0.0 | 0.00 | 0.00 | 0.00 | 60 | 1014.0 |
| 20260905060059 | 77 | 360 | 0.0 | 0.0 | 0.00 | 0.00 | 0.00 | 60 | 1014.2 |
| 20260905054708 | 77 | 360 | 0.0 | 0.0 | 0.00 | 0.00 | 0.00 | 61 | 1014.3 |
| 20260905053054 | 77 | 360 | 0.0 | 0.0 | 0.00 | 0.00 | 0.00 | 61 | 1014.3 |
| 20260905051554 | 77 | 360 | 0.0 | 0.0 | 0.00 | 0.00 | 0.00 | 62 | 1014.2 |
| 20260905050051 | 78 | 360 | 0.0 | 0.0 | 0.00 | 0.00 | 0.00 | 63 | 1014.5 |
| 20260905044603 | 79 | 360 | 0.0 | 0.0 | 0.00 | 0.00 | 0.00 | 63 | 1014.5 |